createdAt,value
2022-12-16T00:02:20.933Z,8.63
2022-12-16T00:05:08.813Z,8.50
2022-12-16T00:08:01.938Z,9.00
2022-12-16T00:10:56.767Z,8.00
2022-12-16T00:13:50.831Z,9.07
2022-12-16T00:16:44.896Z,8.80
2022-12-16T00:19:37.878Z,8.82
2022-12-16T00:22:24.751Z,8.07
2022-12-16T00:25:18.981Z,8.48
2022-12-16T00:28:12.917Z,8.25
2022-12-16T00:30:59.901Z,8.27
2022-12-16T00:33:52.837Z,8.35
2022-12-16T00:36:39.861Z,7.95
2022-12-16T00:39:39.908Z,8.15
2022-12-16T00:42:26.776Z,8.10
2022-12-16T00:45:19.916Z,8.00
2022-12-16T00:48:08.179Z,7.85
2022-12-16T00:51:02.482Z,8.57
2022-12-16T00:53:49.326Z,8.77
2022-12-16T00:56:43.863Z,8.07
2022-12-16T00:59:36.925Z,8.10
2022-12-16T01:02:38.061Z,8.45
2022-12-16T01:05:35.878Z,7.97
2022-12-16T01:08:22.848Z,8.13
2022-12-16T01:11:17.967Z,8.02
2022-12-16T01:14:05.020Z,7.97
2022-12-16T01:16:57.905Z,8.40
2022-12-16T01:19:50.934Z,7.85
2022-12-16T01:22:43.907Z,8.07
2022-12-16T01:25:38.085Z,8.25
2022-12-16T01:28:31.907Z,8.50
2022-12-16T01:31:27.054Z,8.23
2022-12-16T01:34:20.916Z,7.85
2022-12-16T01:37:12.270Z,8.30
2022-12-16T01:40:06.894Z,7.53
2022-12-16T01:42:53.826Z,7.55
2022-12-16T01:45:46.972Z,7.50
2022-12-16T01:48:52.571Z,7.60
2022-12-16T01:51:55.138Z,7.97
2022-12-16T01:54:50.489Z,7.68
2022-12-16T01:57:52.008Z,7.65
2022-12-16T02:00:56.043Z,7.63
2022-12-16T02:03:57.897Z,8.00
2022-12-16T02:06:57.988Z,7.30
2022-12-16T02:09:44.826Z,7.65
2022-12-16T02:13:04.931Z,7.88
2022-12-16T02:16:28.005Z,7.10
2022-12-16T02:19:38.939Z,7.30
2022-12-16T02:22:37.938Z,6.97
2022-12-16T02:25:26.129Z,7.68
2022-12-16T02:28:18.942Z,7.70
2022-12-16T02:31:28.911Z,7.35
2022-12-16T02:34:35.013Z,7.22
2022-12-16T02:37:45.005Z,7.22
2022-12-16T02:40:48.932Z,6.60
2022-12-16T02:43:53.512Z,7.38
2022-12-16T02:46:59.935Z,7.03
2022-12-16T02:49:54.933Z,6.90
2022-12-16T02:52:47.990Z,7.28
2022-12-16T02:56:12.014Z,7.40
2022-12-16T02:59:49.012Z,6.85
2022-12-16T03:03:20.977Z,6.65
2022-12-16T03:06:17.146Z,6.80
2022-12-16T03:09:14.001Z,6.70
2022-12-16T03:12:06.819Z,7.07
2022-12-16T03:15:02.028Z,6.95
2022-12-16T03:17:51.303Z,7.15
2022-12-16T03:20:53.983Z,6.82
2022-12-16T03:24:06.989Z,6.78
2022-12-16T03:27:07.727Z,7.13
2022-12-16T03:30:16.029Z,6.38
2022-12-16T03:33:33.264Z,7.57
2022-12-16T03:36:31.039Z,6.68
2022-12-16T03:39:21.390Z,6.95
2022-12-16T03:42:16.032Z,6.50
2022-12-16T03:45:12.052Z,6.68
2022-12-16T03:48:06.950Z,6.88
2022-12-16T03:51:01.139Z,6.47
2022-12-16T03:53:55.112Z,6.75
2022-12-16T03:56:47.969Z,6.70
2022-12-16T03:59:34.870Z,6.55
2022-12-16T04:02:28.183Z,6.60
2022-12-16T04:05:16.117Z,6.85
2022-12-16T04:08:09.973Z,6.90
2022-12-16T04:11:15.921Z,6.30
2022-12-16T04:14:28.154Z,6.53
2022-12-16T04:17:34.019Z,6.18
2022-12-16T04:21:07.033Z,6.38
2022-12-16T04:24:22.978Z,6.75
2022-12-16T04:27:24.801Z,5.97
2022-12-16T04:30:28.354Z,6.00
2022-12-16T04:33:35.452Z,6.20
2022-12-16T04:36:47.014Z,6.45
2022-12-16T04:39:59.081Z,6.03
2022-12-16T04:43:04.911Z,6.28
2022-12-16T04:46:37.081Z,6.43
2022-12-16T04:49:42.729Z,7.07
2022-12-16T04:52:55.017Z,6.80
2022-12-16T04:56:07.056Z,6.32
2022-12-16T04:59:19.065Z,6.30
2022-12-16T05:02:31.320Z,7.53
2022-12-16T05:05:44.039Z,6.13
2022-12-16T05:08:57.074Z,6.38
2022-12-16T05:12:09.016Z,6.30
2022-12-16T05:15:21.094Z,6.38
2022-12-16T05:18:35.068Z,6.18
2022-12-16T05:21:40.383Z,6.05
2022-12-16T05:24:53.324Z,5.75
2022-12-16T05:27:58.772Z,6.22
2022-12-16T05:31:11.556Z,6.50
2022-12-16T05:34:24.027Z,6.65
2022-12-16T05:37:29.748Z,6.50
2022-12-16T05:40:42.061Z,6.60
2022-12-16T05:43:47.442Z,6.03
2022-12-16T05:47:00.127Z,6.38
2022-12-16T05:50:12.631Z,6.60
2022-12-16T05:53:18.420Z,7.03
2022-12-16T05:56:34.102Z,6.88
2022-12-16T05:59:39.513Z,6.13
2022-12-16T06:02:52.205Z,6.55
2022-12-16T06:06:03.893Z,6.78
2022-12-16T06:09:16.088Z,6.15
2022-12-16T06:12:28.073Z,6.85
2022-12-16T06:15:57.243Z,7.78
2022-12-16T06:19:10.089Z,6.40
2022-12-16T06:22:22.096Z,6.47
2022-12-16T06:25:34.071Z,7.97
2022-12-16T06:28:46.211Z,6.10
2022-12-16T06:31:52.017Z,5.80
2022-12-16T06:35:04.067Z,5.20
2022-12-16T06:38:09.543Z,5.55
2022-12-16T06:41:22.103Z,5.88
2022-12-16T06:44:34.112Z,5.80
2022-12-16T06:47:46.131Z,5.28
2022-12-16T06:50:58.113Z,5.85
2022-12-16T06:54:03.846Z,5.88
2022-12-16T06:57:16.150Z,5.20
2022-12-16T07:00:22.396Z,5.55
2022-12-16T07:03:41.781Z,6.13
2022-12-16T07:06:54.100Z,6.53
2022-12-16T07:09:59.432Z,5.65
2022-12-16T07:13:11.156Z,5.43
2022-12-16T07:16:17.261Z,6.03
2022-12-16T07:19:29.114Z,5.95
2022-12-16T07:22:34.913Z,5.60
2022-12-16T07:25:47.092Z,5.50
2022-12-16T07:28:52.830Z,7.75
2022-12-16T07:32:05.202Z,5.75
2022-12-16T07:35:17.838Z,5.90
2022-12-16T07:38:23.390Z,5.78
2022-12-16T07:41:35.096Z,5.82
2022-12-16T07:44:40.732Z,6.18
2022-12-16T07:47:53.099Z,5.50
2022-12-16T07:51:07.714Z,6.25
2022-12-16T07:54:21.147Z,7.25
2022-12-16T07:57:33.101Z,6.53
2022-12-16T08:00:39.008Z,6.72
2022-12-16T08:03:57.254Z,6.95
2022-12-16T08:07:02.856Z,6.13
2022-12-16T08:10:15.399Z,6.78
2022-12-16T08:13:30.296Z,7.82
2022-12-16T08:16:35.983Z,8.55
2022-12-16T08:19:48.175Z,6.50
2022-12-16T08:22:53.384Z,5.93
2022-12-16T08:26:07.141Z,6.63
2022-12-16T08:32:44.338Z,7.75
2022-12-16T08:35:57.145Z,7.63
2022-12-16T08:39:02.557Z,8.70
2022-12-16T08:42:15.365Z,8.45
2022-12-16T08:45:20.842Z,7.15
2022-12-16T08:48:32.163Z,8.68
2022-12-16T08:51:44.161Z,7.50
2022-12-16T08:54:56.170Z,8.98
2022-12-16T08:58:01.898Z,9.00
2022-12-16T09:01:14.334Z,8.05
2022-12-16T09:04:27.479Z,8.10
2022-12-16T09:07:39.200Z,7.80
2022-12-16T09:10:51.236Z,7.53
2022-12-16T09:14:03.223Z,7.00
2022-12-16T09:17:21.166Z,7.03
2022-12-16T09:20:34.161Z,8.00
2022-12-16T09:23:39.349Z,8.07
2022-12-16T09:26:54.192Z,8.85
2022-12-16T09:30:06.197Z,7.13
2022-12-16T09:33:18.160Z,9.32
2022-12-16T09:36:31.231Z,6.88
2022-12-16T09:39:54.191Z,7.82
2022-12-16T09:43:27.244Z,8.75
2022-12-16T09:46:49.238Z,7.70
2022-12-16T09:50:11.370Z,8.57
2022-12-16T09:53:27.208Z,7.40
2022-12-16T09:56:44.174Z,7.93
2022-12-16T10:00:02.218Z,8.23
2022-12-16T10:03:23.504Z,8.05
2022-12-16T10:07:06.558Z,8.13
2022-12-16T10:10:53.257Z,8.23
2022-12-16T10:14:23.179Z,8.05
2022-12-16T10:17:41.251Z,8.32
2022-12-16T10:21:17.223Z,8.55
2022-12-16T10:25:06.920Z,9.55
2022-12-16T10:28:40.214Z,8.63
2022-12-16T10:31:53.228Z,8.15
2022-12-16T10:34:59.538Z,7.93
2022-12-16T10:38:13.262Z,9.48
2022-12-16T10:41:20.108Z,8.27
2022-12-16T10:44:50.189Z,8.88
2022-12-16T10:48:05.267Z,8.70
2022-12-16T10:51:18.826Z,8.50
2022-12-16T10:54:46.209Z,8.23
2022-12-16T10:58:08.198Z,7.97
2022-12-16T11:01:20.400Z,8.73
2022-12-16T11:05:00.001Z,9.23
2022-12-16T11:08:12.215Z,9.77
2022-12-16T11:11:38.213Z,8.85
2022-12-16T11:14:59.523Z,9.85
2022-12-16T11:18:31.286Z,9.20
2022-12-16T11:21:47.313Z,8.85
2022-12-16T11:24:53.848Z,8.77
2022-12-16T11:28:06.304Z,10.20
2022-12-16T11:31:16.017Z,9.07
2022-12-16T11:34:29.283Z,10.57
2022-12-16T11:37:41.243Z,9.35
2022-12-16T11:40:55.379Z,9.93
2022-12-16T11:44:13.290Z,9.07
2022-12-16T11:47:18.582Z,11.27
2022-12-16T11:50:37.301Z,8.68
2022-12-16T11:54:06.253Z,11.55
2022-12-16T11:57:13.325Z,10.23
2022-12-16T12:00:27.319Z,10.05
2022-12-16T12:03:57.417Z,11.73
2022-12-16T12:07:26.357Z,9.57
2022-12-16T12:10:38.285Z,8.63
2022-12-16T12:13:54.517Z,10.10
2022-12-16T12:17:16.370Z,9.00
2022-12-16T12:20:46.263Z,11.77
2022-12-16T12:24:11.422Z,8.88
2022-12-16T12:27:42.362Z,8.98
2022-12-16T12:30:58.254Z,8.52
2022-12-16T12:34:23.268Z,10.90
2022-12-16T12:38:14.206Z,11.25
2022-12-16T12:41:43.310Z,14.27
2022-12-16T12:45:09.722Z,12.30
2022-12-16T12:48:47.315Z,10.82
2022-12-16T12:51:58.431Z,10.40
2022-12-16T12:55:47.262Z,10.63
2022-12-16T12:58:54.890Z,10.10
2022-12-16T13:02:08.388Z,10.48
2022-12-16T13:05:27.938Z,9.52
2022-12-16T13:09:08.277Z,9.15
2022-12-16T13:12:25.776Z,9.30
2022-12-16T13:16:02.382Z,11.88
2022-12-16T13:19:59.015Z,9.32
2022-12-16T13:23:12.347Z,10.75
2022-12-16T13:26:24.225Z,10.50
2022-12-16T13:29:46.323Z,8.52
2022-12-16T13:33:15.314Z,9.80
2022-12-16T13:36:27.364Z,9.80
2022-12-16T13:39:51.318Z,12.07
2022-12-16T13:42:59.429Z,12.90
2022-12-16T13:46:26.296Z,11.75
2022-12-16T13:50:16.696Z,12.60
2022-12-16T13:53:30.627Z,11.82
2022-12-16T13:56:51.375Z,17.33
2022-12-16T13:59:59.836Z,10.35
2022-12-16T14:03:17.473Z,11.00
2022-12-16T14:06:34.323Z,12.32
2022-12-16T14:09:59.408Z,11.68
2022-12-16T14:13:32.649Z,12.75
2022-12-16T14:16:38.927Z,11.55
2022-12-16T14:20:00.407Z,12.63
2022-12-16T14:23:47.218Z,11.00
2022-12-16T14:26:46.440Z,11.15
2022-12-16T14:29:58.413Z,10.50
2022-12-16T14:33:04.168Z,11.07
2022-12-16T14:36:16.496Z,12.75
2022-12-16T14:39:22.546Z,12.73
2022-12-16T14:42:52.366Z,8.82
2022-12-16T14:46:04.814Z,10.70
2022-12-16T14:49:10.725Z,10.95
2022-12-16T14:52:22.350Z,9.88
2022-12-16T14:55:44.777Z,12.60
2022-12-16T14:58:57.375Z,10.60
2022-12-16T15:02:14.071Z,10.35
2022-12-16T15:05:42.558Z,9.93
2022-12-16T15:09:13.398Z,9.48
2022-12-16T15:12:19.377Z,14.20
2022-12-16T15:15:36.393Z,19.17
2022-12-16T15:18:50.840Z,19.52
2022-12-16T15:22:02.374Z,17.10
2022-12-16T15:25:14.395Z,16.25
2022-12-16T15:28:20.047Z,15.95
2022-12-16T15:31:39.485Z,14.88
2022-12-16T15:34:49.996Z,14.48
2022-12-16T15:38:04.913Z,14.05
2022-12-16T15:41:37.391Z,15.25
2022-12-16T15:44:46.075Z,12.63
2022-12-16T15:48:01.385Z,11.55
2022-12-16T15:51:18.435Z,13.40
2022-12-16T15:54:30.542Z,13.52
2022-12-16T15:57:59.388Z,11.23
2022-12-16T16:01:16.628Z,13.90
2022-12-16T16:04:29.388Z,10.88
2022-12-16T16:07:37.138Z,10.98
2022-12-16T16:10:50.391Z,13.23
2022-12-16T16:14:08.327Z,10.15
2022-12-16T16:17:24.402Z,10.48
2022-12-16T16:20:41.440Z,10.18
2022-12-16T16:23:47.484Z,9.93
2022-12-16T16:26:59.394Z,9.77
2022-12-16T16:30:11.398Z,9.55
2022-12-16T16:33:23.394Z,8.98
2022-12-16T16:36:40.503Z,8.77
2022-12-16T16:39:52.407Z,9.68
2022-12-16T16:43:08.488Z,10.77
2022-12-16T16:46:21.603Z,10.13
2022-12-16T16:49:38.446Z,10.45
2022-12-16T16:52:52.448Z,8.85
2022-12-16T16:56:04.725Z,10.15
2022-12-16T16:59:16.477Z,9.40
2022-12-16T17:02:22.502Z,10.38
2022-12-16T17:05:42.527Z,8.95
2022-12-16T17:08:47.852Z,9.30
2022-12-16T17:12:07.487Z,13.85
2022-12-16T17:15:12.652Z,22.50
2022-12-16T17:18:24.526Z,73.93
2022-12-16T17:21:36.472Z,118.78
2022-12-16T17:24:51.495Z,91.13
2022-12-16T17:28:10.430Z,108.60
2022-12-16T17:31:22.562Z,106.93
2022-12-16T17:34:28.009Z,81.95
2022-12-16T17:37:40.550Z,85.28
2022-12-16T17:40:46.614Z,84.65
2022-12-16T17:43:58.445Z,82.18
2022-12-16T17:47:10.447Z,75.75
2022-12-16T17:50:22.545Z,75.15
2022-12-16T17:53:34.744Z,75.75
2022-12-16T17:56:46.549Z,70.88
2022-12-16T17:59:59.550Z,71.38
2022-12-16T18:03:11.745Z,68.85
2022-12-16T18:06:31.483Z,63.58
2022-12-16T18:09:43.518Z,63.95
2022-12-16T18:12:50.331Z,61.55
2022-12-16T18:16:02.579Z,58.85
2022-12-16T18:19:09.439Z,58.08
2022-12-16T18:22:21.527Z,54.67
2022-12-16T18:25:27.112Z,48.53
2022-12-16T18:28:39.511Z,45.95
2022-12-16T18:31:51.566Z,46.30
2022-12-16T18:35:03.531Z,44.38
2022-12-16T18:38:16.756Z,44.00
2022-12-16T18:41:39.487Z,42.28
2022-12-16T18:44:54.881Z,43.28
2022-12-16T18:48:03.294Z,41.75
2022-12-16T18:51:22.515Z,41.42
2022-12-16T18:54:34.509Z,40.28
2022-12-16T18:57:40.107Z,39.13
2022-12-16T19:00:52.558Z,37.28
2022-12-16T19:04:04.240Z,35.20
2022-12-16T19:07:23.490Z,38.10
2022-12-16T19:10:35.509Z,35.90
2022-12-16T19:13:47.512Z,38.90
2022-12-16T19:16:59.544Z,36.88
2022-12-16T19:20:11.757Z,34.40
2022-12-16T19:23:17.463Z,34.38
2022-12-16T19:26:29.560Z,31.90
2022-12-16T19:29:41.535Z,30.10
2022-12-16T19:32:47.011Z,31.63
2022-12-16T19:35:59.534Z,31.63
2022-12-16T19:39:11.503Z,30.27
2022-12-16T19:42:23.572Z,30.70
2022-12-16T19:45:35.775Z,33.58
2022-12-16T19:48:48.581Z,31.42
2022-12-16T19:51:53.884Z,29.65
2022-12-16T19:55:11.666Z,29.98
2022-12-16T19:58:27.581Z,28.70
2022-12-16T20:01:33.320Z,28.60
2022-12-16T20:04:45.527Z,28.80
2022-12-16T20:08:03.579Z,27.15
2022-12-16T20:11:09.307Z,26.98
2022-12-16T20:14:22.576Z,26.20
2022-12-16T20:17:35.557Z,25.83
2022-12-16T20:20:47.568Z,27.13
2022-12-16T20:23:59.599Z,25.23
2022-12-16T20:27:11.639Z,27.10
2022-12-16T20:30:23.652Z,26.17
2022-12-16T20:33:34.218Z,26.50
2022-12-16T20:36:46.596Z,26.17
2022-12-16T20:39:56.791Z,26.00
2022-12-16T20:43:09.678Z,24.45
2022-12-16T20:46:38.629Z,25.20
2022-12-16T20:49:44.025Z,28.90
2022-12-16T20:52:55.590Z,25.52
2022-12-16T20:56:08.551Z,25.63
2022-12-16T20:59:24.610Z,23.05
2022-12-16T21:02:33.624Z,26.50
2022-12-16T21:05:53.589Z,25.38
2022-12-16T21:09:08.638Z,27.20
2022-12-16T21:12:15.067Z,22.67
2022-12-16T21:15:34.991Z,24.00
2022-12-16T21:18:40.527Z,22.15
2022-12-16T21:21:52.598Z,21.92
2022-12-16T21:25:05.997Z,22.35
2022-12-16T21:28:15.758Z,23.40
2022-12-16T21:31:29.020Z,22.42
2022-12-16T21:34:34.369Z,22.58
2022-12-16T21:37:46.625Z,21.67
2022-12-16T21:40:58.651Z,20.83
2022-12-16T21:44:08.634Z,24.67
2022-12-16T21:47:18.605Z,23.70
2022-12-16T21:50:23.152Z,20.63
2022-12-16T21:53:33.615Z,22.38
2022-12-16T21:56:37.561Z,21.40
2022-12-16T21:59:48.615Z,20.23
2022-12-16T22:02:52.606Z,20.73
2022-12-16T22:06:09.659Z,21.42
2022-12-16T22:09:19.656Z,20.30
2022-12-16T22:15:43.645Z,20.73
2022-12-16T22:18:47.426Z,20.20
2022-12-16T22:21:57.690Z,20.30
2022-12-16T22:25:14.234Z,22.27
2022-12-16T22:28:18.521Z,21.23
2022-12-16T22:31:29.990Z,20.95
2022-12-16T22:34:34.165Z,20.58
2022-12-16T22:37:44.695Z,22.50
2022-12-16T22:40:48.832Z,23.92
2022-12-16T22:43:59.679Z,20.98
2022-12-16T22:47:03.845Z,20.15
2022-12-16T22:50:14.674Z,19.88
2022-12-16T22:53:24.672Z,21.08
2022-12-16T22:56:29.021Z,20.40
2022-12-16T22:59:38.661Z,18.92
2022-12-16T23:02:42.603Z,19.58
2022-12-16T23:05:59.675Z,19.77
2022-12-16T23:09:10.702Z,19.80
2022-12-16T23:12:21.627Z,19.42
2022-12-16T23:15:33.000Z,20.55
2022-12-16T23:18:44.287Z,20.02
2022-12-16T23:21:54.672Z,17.98
2022-12-16T23:25:00.603Z,18.55
2022-12-16T23:28:11.641Z,18.42
2022-12-16T23:31:22.901Z,19.23
2022-12-16T23:34:27.096Z,18.27
2022-12-16T23:37:37.714Z,18.67
2022-12-16T23:40:41.682Z,17.77
2022-12-16T23:43:52.735Z,19.65
2022-12-16T23:47:02.740Z,18.58
2022-12-16T23:50:15.764Z,18.98
2022-12-16T23:53:30.806Z,17.63
2022-12-16T23:56:41.721Z,18.17
2022-12-16T23:59:52.705Z,19.02
